sensor_id;sensor_type;location;lat;lon;timestamp;pressure;altitude;pressure_sealevel;temperature;humidity
55759;BME280;41678;52.126;20.664;2023-03-05T00:02:12;99879.94;;;-3.25;81.07
55759;BME280;41678;52.126;20.664;2023-03-05T00:07:33;99891.75;;;-3.31;81.11
55759;BME280;41678;52.126;20.664;2023-03-05T00:12:53;99882.03;;;-3.38;81.12
55759;BME280;41678;52.126;20.664;2023-03-05T00:18:12;99869.81;;;-3.44;81.24
55759;BME280;41678;52.126;20.664;2023-03-05T00:23:32;99864.72;;;-3.42;81.35
55759;BME280;41678;52.126;20.664;2023-03-05T00:28:51;99864.63;;;-3.45;81.50
55759;BME280;41678;52.126;20.664;2023-03-05T00:34:14;99860.22;;;-3.48;81.30
55759;BME280;41678;52.126;20.664;2023-03-05T00:39:34;99859.34;;;-3.48;81.30
55759;BME280;41678;52.126;20.664;2023-03-05T00:44:53;99845.28;;;-3.57;81.39
55759;BME280;41678;52.126;20.664;2023-03-05T00:50:13;99846.03;;;-3.59;81.68
55759;BME280;41678;52.126;20.664;2023-03-05T00:55:32;99829.44;;;-3.67;81.78
55759;BME280;41678;52.126;20.664;2023-03-05T01:00:57;99834.78;;;-3.63;81.31
55759;BME280;41678;52.126;20.664;2023-03-05T01:06:18;99825.13;;;-3.68;81.77
55759;BME280;41678;52.126;20.664;2023-03-05T01:11:38;99812.72;;;-3.79;81.68
55759;BME280;41678;52.126;20.664;2023-03-05T01:16:58;99816.94;;;-3.81;81.49
55759;BME280;41678;52.126;20.664;2023-03-05T01:22:17;99816.09;;;-3.80;81.72
55759;BME280;41678;52.126;20.664;2023-03-05T01:27:36;99800.47;;;-3.85;81.55
55759;BME280;41678;52.126;20.664;2023-03-05T01:32:56;99793.28;;;-3.93;81.80
55759;BME280;41678;52.126;20.664;2023-03-05T01:38:15;99797.81;;;-3.88;81.69
55759;BME280;41678;52.126;20.664;2023-03-05T01:43:35;99801.19;;;-3.89;82.02
55759;BME280;41678;52.126;20.664;2023-03-05T01:49:03;99789.84;;;-3.94;81.87
55759;BME280;41678;52.126;20.664;2023-03-05T01:54:27;99791.75;;;-3.88;82.12
55759;BME280;41678;52.126;20.664;2023-03-05T01:59:50;99788.16;;;-3.93;82.00
55759;BME280;41678;52.126;20.664;2023-03-05T02:05:15;99780.34;;;-3.95;81.85
55759;BME280;41678;52.126;20.664;2023-03-05T02:10:50;99784.72;;;-3.94;81.98
55759;BME280;41678;52.126;20.664;2023-03-05T02:16:11;99780.34;;;-3.95;81.94
55759;BME280;41678;52.126;20.664;2023-03-05T02:21:43;99769.84;;;-4.01;82.14
55759;BME280;41678;52.126;20.664;2023-03-05T02:27:04;99760.19;;;-4.07;82.02
55759;BME280;41678;52.126;20.664;2023-03-05T02:32:24;99766.22;;;-4.06;82.38
55759;BME280;41678;52.126;20.664;2023-03-05T02:37:44;99759.97;;;-4.13;81.97
55759;BME280;41678;52.126;20.664;2023-03-05T02:43:04;99760.94;;;-4.09;81.89
55759;BME280;41678;52.126;20.664;2023-03-05T02:48:24;99754.03;;;-4.10;82.11
55759;BME280;41678;52.126;20.664;2023-03-05T02:53:44;99747.03;;;-4.15;82.11
55759;BME280;41678;52.126;20.664;2023-03-05T02:59:04;99751.53;;;-4.09;81.88
55759;BME280;41678;52.126;20.664;2023-03-05T03:04:24;99736.03;;;-4.10;82.28
55759;BME280;41678;52.126;20.664;2023-03-05T03:09:44;99746.31;;;-4.10;82.12
55759;BME280;41678;52.126;20.664;2023-03-05T03:15:04;99732.34;;;-4.17;81.77
55759;BME280;41678;52.126;20.664;2023-03-05T03:20:24;99742.81;;;-4.13;81.87
55759;BME280;41678;52.126;20.664;2023-03-05T03:25:44;99732.25;;;-4.20;82.31
55759;BME280;41678;52.126;20.664;2023-03-05T03:31:04;99728.81;;;-4.21;82.20
55759;BME280;41678;52.126;20.664;2023-03-05T03:36:23;99728.22;;;-4.14;82.69
55759;BME280;41678;52.126;20.664;2023-03-05T03:41:46;99710.56;;;-4.27;81.94
55759;BME280;41678;52.126;20.664;2023-03-05T03:47:06;99709.81;;;-4.24;82.16
55759;BME280;41678;52.126;20.664;2023-03-05T03:52:26;99709.88;;;-4.23;81.85
55759;BME280;41678;52.126;20.664;2023-03-05T03:57:46;99696.59;;;-4.34;82.10
55759;BME280;41678;52.126;20.664;2023-03-05T04:03:05;99703.56;;;-4.31;82.39
55759;BME280;41678;52.126;20.664;2023-03-05T04:08:25;99691.28;;;-4.38;82.04
55759;BME280;41678;52.126;20.664;2023-03-05T04:13:45;99686.09;;;-4.40;82.47
55759;BME280;41678;52.126;20.664;2023-03-05T04:19:05;99675.72;;;-4.42;82.04
55759;BME280;41678;52.126;20.664;2023-03-05T04:24:24;99673.47;;;-4.34;82.11
55759;BME280;41678;52.126;20.664;2023-03-05T04:29:43;99658.81;;;-4.36;82.15
55759;BME280;41678;52.126;20.664;2023-03-05T04:35:03;99666.53;;;-4.36;82.40
55759;BME280;41678;52.126;20.664;2023-03-05T04:40:23;99656.44;;;-4.32;82.29
55759;BME280;41678;52.126;20.664;2023-03-05T04:45:43;99652.06;;;-4.33;82.21
55759;BME280;41678;52.126;20.664;2023-03-05T04:51:02;99650.38;;;-4.32;82.18
55759;BME280;41678;52.126;20.664;2023-03-05T04:56:22;99624.47;;;-4.38;82.20
55759;BME280;41678;52.126;20.664;2023-03-05T05:01:42;99630.66;;;-4.33;81.95
55759;BME280;41678;52.126;20.664;2023-03-05T05:07:02;99640.94;;;-4.33;82.35
55759;BME280;41678;52.126;20.664;2023-03-05T05:12:21;99619.06;;;-4.45;82.36
55759;BME280;41678;52.126;20.664;2023-03-05T05:17:41;99633.31;;;-4.30;81.86
55759;BME280;41678;52.126;20.664;2023-03-05T05:23:00;99626.50;;;-4.30;82.03
55759;BME280;41678;52.126;20.664;2023-03-05T05:28:20;99634.44;;;-4.23;82.18
55759;BME280;41678;52.126;20.664;2023-03-05T05:33:39;99630.19;;;-4.23;82.09
55759;BME280;41678;52.126;20.664;2023-03-05T05:39:00;99633.72;;;-4.19;81.98
55759;BME280;41678;52.126;20.664;2023-03-05T05:44:19;99628.47;;;-4.22;82.42
55759;BME280;41678;52.126;20.664;2023-03-05T05:49:39;99620.00;;;-4.20;82.37
55759;BME280;41678;52.126;20.664;2023-03-05T05:54:58;99633.25;;;-4.09;82.14
55759;BME280;41678;52.126;20.664;2023-03-05T06:00:18;99625.63;;;-4.07;82.04
55759;BME280;41678;52.126;20.664;2023-03-05T06:05:37;99617.84;;;-4.09;82.02
55759;BME280;41678;52.126;20.664;2023-03-05T06:10:58;99625.06;;;-3.99;81.96
55759;BME280;41678;52.126;20.664;2023-03-05T06:16:21;99623.44;;;-3.96;82.31
55759;BME280;41678;52.126;20.664;2023-03-05T06:21:42;99615.88;;;-3.92;82.34
55759;BME280;41678;52.126;20.664;2023-03-05T06:27:03;99601.13;;;-3.96;82.67
55759;BME280;41678;52.126;20.664;2023-03-05T06:32:23;99615.28;;;-3.85;82.34
55759;BME280;41678;52.126;20.664;2023-03-05T06:37:42;99597.38;;;-3.81;81.86
55759;BME280;41678;52.126;20.664;2023-03-05T06:43:03;99596.88;;;-3.71;82.33
55759;BME280;41678;52.126;20.664;2023-03-05T06:48:22;99583.69;;;-3.56;81.78
55759;BME280;41678;52.126;20.664;2023-03-05T06:53:43;99562.38;;;-3.52;82.29
55759;BME280;41678;52.126;20.664;2023-03-05T06:59:03;99531.09;;;-3.37;82.11
55759;BME280;41678;52.126;20.664;2023-03-05T07:04:22;99531.59;;;-3.21;82.49
55759;BME280;41678;52.126;20.664;2023-03-05T07:09:42;99551.16;;;-2.99;81.85
55759;BME280;41678;52.126;20.664;2023-03-05T07:15:04;99560.25;;;-2.83;82.10
55759;BME280;41678;52.126;20.664;2023-03-05T07:20:23;99553.69;;;-2.73;82.05
55759;BME280;41678;52.126;20.664;2023-03-05T07:25:43;99546.34;;;-2.59;82.22
55759;BME280;41678;52.126;20.664;2023-03-05T07:31:05;99545.84;;;-2.47;81.46
55759;BME280;41678;52.126;20.664;2023-03-05T07:36:25;99532.97;;;-2.47;82.00
55759;BME280;41678;52.126;20.664;2023-03-05T07:41:45;99541.38;;;-2.22;81.50
55759;BME280;41678;52.126;20.664;2023-03-05T07:47:06;99529.31;;;-2.23;81.77
55759;BME280;41678;52.126;20.664;2023-03-05T07:52:26;99537.47;;;-2.09;81.60
55759;BME280;41678;52.126;20.664;2023-03-05T07:57:45;99546.34;;;-1.98;82.21
55759;BME280;41678;52.126;20.664;2023-03-05T08:03:05;99537.00;;;-1.94;82.39
55759;BME280;41678;52.126;20.664;2023-03-05T08:08:28;99547.78;;;-1.77;81.98
55759;BME280;41678;52.126;20.664;2023-03-05T08:13:48;99541.84;;;-1.73;81.79
55759;BME280;41678;52.126;20.664;2023-03-05T08:19:09;99545.66;;;-1.59;82.29
55759;BME280;41678;52.126;20.664;2023-03-05T08:24:29;99544.75;;;-1.61;82.35
55759;BME280;41678;52.126;20.664;2023-03-05T08:29:49;99539.88;;;-1.50;81.95
55759;BME280;41678;52.126;20.664;2023-03-05T08:35:09;99537.47;;;-1.42;82.01
55759;BME280;41678;52.126;20.664;2023-03-05T08:40:28;99544.69;;;-1.29;81.54
55759;BME280;41678;52.126;20.664;2023-03-05T08:45:48;99537.00;;;-1.27;82.03
55759;BME280;41678;52.126;20.664;2023-03-05T08:51:15;99526.84;;;-1.19;82.29
55759;BME280;41678;52.126;20.664;2023-03-05T08:56:37;99530.50;;;-1.09;81.79
55759;BME280;41678;52.126;20.664;2023-03-05T09:02:00;99524.47;;;-1.10;82.07
55759;BME280;41678;52.126;20.664;2023-03-05T09:07:20;99517.72;;;-1.05;81.60
55759;BME280;41678;52.126;20.664;2023-03-05T09:12:40;99511.69;;;-1.04;82.17
55759;BME280;41678;52.126;20.664;2023-03-05T09:18:03;99520.66;;;-0.89;81.65
55759;BME280;41678;52.126;20.664;2023-03-05T09:23:23;99516.31;;;-0.90;81.64
55759;BME280;41678;52.126;20.664;2023-03-05T09:28:43;99521.59;;;-0.84;81.69
55759;BME280;41678;52.126;20.664;2023-03-05T09:34:04;99522.56;;;-0.79;81.41
55759;BME280;41678;52.126;20.664;2023-03-05T09:39:24;99519.25;;;-0.73;81.74
55759;BME280;41678;52.126;20.664;2023-03-05T09:50:44;99525.44;;;-0.66;81.52
55759;BME280;41678;52.126;20.664;2023-03-05T09:56:15;99515.16;;;-0.63;81.04
55759;BME280;41678;52.126;20.664;2023-03-05T10:01:39;99510.03;;;-0.62;82.09
55759;BME280;41678;52.126;20.664;2023-03-05T10:07:07;99510.13;;;-0.57;81.50
55759;BME280;41678;52.126;20.664;2023-03-05T10:23:53;99502.53;;;-0.48;81.58
55759;BME280;41678;52.126;20.664;2023-03-05T10:35:08;99492.19;;;-0.48;80.77
55759;BME280;41678;52.126;20.664;2023-03-05T10:40:46;99480.78;;;-0.58;81.41
55759;BME280;41678;52.126;20.664;2023-03-05T10:46:12;99488.72;;;-0.50;81.46
55759;BME280;41678;52.126;20.664;2023-03-05T10:51:40;99486.13;;;-0.51;81.33
55759;BME280;41678;52.126;20.664;2023-03-05T10:57:19;99476.75;;;-0.45;81.87
55759;BME280;41678;52.126;20.664;2023-03-05T11:02:59;99470.59;;;-0.50;81.85
55759;BME280;41678;52.126;20.664;2023-03-05T11:08:26;99467.13;;;-0.52;81.63
55759;BME280;41678;52.126;20.664;2023-03-05T11:25:13;99454.97;;;-0.56;82.00
55759;BME280;41678;52.126;20.664;2023-03-05T11:30:35;99453.19;;;-0.60;81.98
55759;BME280;41678;52.126;20.664;2023-03-05T11:36:27;99440.16;;;-0.63;81.99
55759;BME280;41678;52.126;20.664;2023-03-05T11:41:55;99437.47;;;-0.69;82.64
55759;BME280;41678;52.126;20.664;2023-03-05T11:47:32;99428.75;;;-0.75;82.69
55759;BME280;41678;52.126;20.664;2023-03-05T11:53:11;99428.81;;;-0.72;83.00
55759;BME280;41678;52.126;20.664;2023-03-05T11:58:38;99419.28;;;-0.74;83.29
55759;BME280;41678;52.126;20.664;2023-03-05T12:03:59;99414.84;;;-0.80;83.52
55759;BME280;41678;52.126;20.664;2023-03-05T12:09:28;99410.66;;;-0.73;83.84
55759;BME280;41678;52.126;20.664;2023-03-05T12:20:47;99401.19;;;-0.74;84.98
55759;BME280;41678;52.126;20.664;2023-03-05T12:26:11;99393.38;;;-0.77;84.31
55759;BME280;41678;52.126;20.664;2023-03-05T12:31:37;99393.16;;;-0.87;84.15
55759;BME280;41678;52.126;20.664;2023-03-05T12:36:57;99395.00;;;-0.81;84.33
55759;BME280;41678;52.126;20.664;2023-03-05T12:53:16;99379.41;;;-0.87;85.04
55759;BME280;41678;52.126;20.664;2023-03-05T12:58:43;99374.28;;;-0.84;85.26
55759;BME280;41678;52.126;20.664;2023-03-05T13:04:06;99371.69;;;-0.84;85.54
55759;BME280;41678;52.126;20.664;2023-03-05T13:09:31;99373.44;;;-0.83;85.34
55759;BME280;41678;52.126;20.664;2023-03-05T13:15:06;99363.84;;;-0.89;85.46
55759;BME280;41678;52.126;20.664;2023-03-05T13:20:39;99362.00;;;-0.94;85.39
55759;BME280;41678;52.126;20.664;2023-03-05T13:26:00;99362.78;;;-0.98;85.47
55759;BME280;41678;52.126;20.664;2023-03-05T13:31:20;99364.59;;;-0.94;85.71
55759;BME280;41678;52.126;20.664;2023-03-05T13:36:47;99361.75;;;-1.07;86.18
55759;BME280;41678;52.126;20.664;2023-03-05T13:42:17;99350.66;;;-1.03;85.76
55759;BME280;41678;52.126;20.664;2023-03-05T13:47:37;99345.44;;;-1.06;86.03
55759;BME280;41678;52.126;20.664;2023-03-05T13:53:36;99338.63;;;-1.01;86.41
55759;BME280;41678;52.126;20.664;2023-03-05T13:58:55;99340.25;;;-1.06;86.31
55759;BME280;41678;52.126;20.664;2023-03-05T14:04:34;99323.19;;;-0.97;86.39
55759;BME280;41678;52.126;20.664;2023-03-05T14:09:55;99318.75;;;-1.05;86.56
55759;BME280;41678;52.126;20.664;2023-03-05T14:21:06;99319.75;;;-0.96;86.19
55759;BME280;41678;52.126;20.664;2023-03-05T14:26:34;99324.94;;;-0.96;86.56
55759;BME280;41678;52.126;20.664;2023-03-05T14:32:19;99321.38;;;-1.02;86.44
55759;BME280;41678;52.126;20.664;2023-03-05T14:37:41;99305.88;;;-1.02;86.67
55759;BME280;41678;52.126;20.664;2023-03-05T14:43:04;99311.16;;;-0.95;87.17
55759;BME280;41678;52.126;20.664;2023-03-05T14:48:23;99303.34;;;-0.98;86.86
55759;BME280;41678;52.126;20.664;2023-03-05T14:53:45;99311.16;;;-0.95;87.41
55759;BME280;41678;52.126;20.664;2023-03-05T14:59:07;99305.06;;;-0.99;87.29
55759;BME280;41678;52.126;20.664;2023-03-05T15:04:27;99305.94;;;-0.98;87.06
55759;BME280;41678;52.126;20.664;2023-03-05T15:09:46;99306.03;;;-0.92;86.92
55759;BME280;41678;52.126;20.664;2023-03-05T15:15:07;99303.31;;;-1.00;87.27
55759;BME280;41678;52.126;20.664;2023-03-05T15:20:28;99302.41;;;-1.04;87.14
55759;BME280;41678;52.126;20.664;2023-03-05T15:25:49;99289.41;;;-1.07;87.14
55759;BME280;41678;52.126;20.664;2023-03-05T15:31:09;99296.34;;;-1.04;87.36
55759;BME280;41678;52.126;20.664;2023-03-05T15:36:29;99289.41;;;-1.07;86.90
55759;BME280;41678;52.126;20.664;2023-03-05T15:41:48;99284.19;;;-1.10;87.31
55759;BME280;41678;52.126;20.664;2023-03-05T15:47:08;99295.25;;;-1.16;87.24
55759;BME280;41678;52.126;20.664;2023-03-05T15:52:27;99296.94;;;-1.19;87.21
55759;BME280;41678;52.126;20.664;2023-03-05T15:57:49;99310.50;;;-1.30;87.43
55759;BME280;41678;52.126;20.664;2023-03-05T16:03:09;99297.53;;;-1.33;87.39
55759;BME280;41678;52.126;20.664;2023-03-05T16:08:30;99310.50;;;-1.30;87.46
55759;BME280;41678;52.126;20.664;2023-03-05T16:13:51;99316.28;;;-1.40;87.54
55759;BME280;41678;52.126;20.664;2023-03-05T16:19:13;99318.09;;;-1.37;87.38
55759;BME280;41678;52.126;20.664;2023-03-05T16:24:34;99313.59;;;-1.46;87.47
55759;BME280;41678;52.126;20.664;2023-03-05T16:29:54;99319.44;;;-1.53;87.51
55759;BME280;41678;52.126;20.664;2023-03-05T16:35:13;99336.94;;;-1.41;87.08
55759;BME280;41678;52.126;20.664;2023-03-05T16:40:36;99336.78;;;-1.49;87.35
55759;BME280;41678;52.126;20.664;2023-03-05T16:45:56;99344.53;;;-1.49;87.05
55759;BME280;41678;52.126;20.664;2023-03-05T16:51:15;99342.56;;;-1.60;86.90
55759;BME280;41678;52.126;20.664;2023-03-05T16:56:35;99347.59;;;-1.66;86.85
55759;BME280;41678;52.126;20.664;2023-03-05T17:01:55;99352.53;;;-1.75;86.87
55759;BME280;41678;52.126;20.664;2023-03-05T17:07:15;99350.72;;;-1.79;87.14
55759;BME280;41678;52.126;20.664;2023-03-05T17:12:35;99356.56;;;-1.87;87.14
55759;BME280;41678;52.126;20.664;2023-03-05T17:17:55;99356.56;;;-1.87;87.41
55759;BME280;41678;52.126;20.664;2023-03-05T17:23:15;99363.34;;;-1.90;87.03
55759;BME280;41678;52.126;20.664;2023-03-05T17:28:34;99355.53;;;-1.95;86.85
55759;BME280;41678;52.126;20.664;2023-03-05T17:33:54;99357.94;;;-2.01;87.20
55759;BME280;41678;52.126;20.664;2023-03-05T17:39:14;99354.28;;;-2.11;86.77
55759;BME280;41678;52.126;20.664;2023-03-05T17:44:33;99353.31;;;-2.15;86.80
55759;BME280;41678;52.126;20.664;2023-03-05T17:49:53;99359.19;;;-2.20;87.01
55759;BME280;41678;52.126;20.664;2023-03-05T17:55:15;99340.72;;;-2.37;87.03
55759;BME280;41678;52.126;20.664;2023-03-05T18:00:37;99352.72;;;-2.39;86.81
55759;BME280;41678;52.126;20.664;2023-03-05T18:05:57;99352.72;;;-2.39;86.58
55759;BME280;41678;52.126;20.664;2023-03-05T18:11:17;99350.72;;;-2.50;87.17
55759;BME280;41678;52.126;20.664;2023-03-05T18:16:37;99348.91;;;-2.54;86.93
55759;BME280;41678;52.126;20.664;2023-03-05T18:21:56;99353.97;;;-2.57;87.16
55759;BME280;41678;52.126;20.664;2023-03-05T18:27:15;99361.59;;;-2.62;87.06
55759;BME280;41678;52.126;20.664;2023-03-05T18:32:35;99351.00;;;-2.73;86.81
55759;BME280;41678;52.126;20.664;2023-03-05T18:37:55;99351.78;;;-2.74;87.18
55759;BME280;41678;52.126;20.664;2023-03-05T18:43:16;99352.47;;;-2.81;87.38
55759;BME280;41678;52.126;20.664;2023-03-05T18:48:38;99340.28;;;-2.87;86.93
55759;BME280;41678;52.126;20.664;2023-03-05T18:53:58;99340.16;;;-2.91;87.01
55759;BME280;41678;52.126;20.664;2023-03-05T18:59:18;99344.31;;;-2.96;87.61
55759;BME280;41678;52.126;20.664;2023-03-05T19:04:37;99346.81;;;-3.00;87.45
55759;BME280;41678;52.126;20.664;2023-03-05T19:09:57;99348.38;;;-3.05;87.16
55759;BME280;41678;52.126;20.664;2023-03-05T19:15:22;99345.72;;;-3.08;87.23
55759;BME280;41678;52.126;20.664;2023-03-05T19:20:41;99349.03;;;-3.12;87.46
55759;BME280;41678;52.126;20.664;2023-03-05T19:26:01;99352.41;;;-3.15;87.53
55759;BME280;41678;52.126;20.664;2023-03-05T19:31:21;99345.28;;;-3.23;87.14
55759;BME280;41678;52.126;20.664;2023-03-05T19:36:41;99345.81;;;-3.35;87.32
55759;BME280;41678;52.126;20.664;2023-03-05T19:42:01;99350.19;;;-3.31;87.15
55759;BME280;41678;52.126;20.664;2023-03-05T19:47:20;99340.56;;;-3.38;87.54
55759;BME280;41678;52.126;20.664;2023-03-05T19:52:40;99356.97;;;-3.35;87.33
55759;BME280;41678;52.126;20.664;2023-03-05T19:57:59;99349.72;;;-3.48;87.30
55759;BME280;41678;52.126;20.664;2023-03-05T20:03:19;99351.47;;;-3.47;87.33
55759;BME280;41678;52.126;20.664;2023-03-05T20:08:39;99345.94;;;-3.60;87.34
55759;BME280;41678;52.126;20.664;2023-03-05T20:13:58;99354.59;;;-3.58;87.26
55759;BME280;41678;52.126;20.664;2023-03-05T20:19:18;99341.03;;;-3.79;87.50
55759;BME280;41678;52.126;20.664;2023-03-05T20:24:38;99347.22;;;-3.74;87.20
55759;BME280;41678;52.126;20.664;2023-03-05T20:29:58;99347.13;;;-3.77;87.39
55759;BME280;41678;52.126;20.664;2023-03-05T20:35:17;99338.34;;;-3.84;87.44
55759;BME280;41678;52.126;20.664;2023-03-05T20:40:37;99342.59;;;-3.85;87.31
55759;BME280;41678;52.126;20.664;2023-03-05T20:45:57;99342.28;;;-3.95;87.39
55759;BME280;41678;52.126;20.664;2023-03-05T20:51:18;99335.97;;;-4.05;87.35
55759;BME280;41678;52.126;20.664;2023-03-05T20:56:41;99325.47;;;-4.12;87.67
55759;BME280;41678;52.126;20.664;2023-03-05T21:02:00;99329.66;;;-4.15;87.46
55759;BME280;41678;52.126;20.664;2023-03-05T21:07:20;99324.38;;;-4.20;87.31
55759;BME280;41678;52.126;20.664;2023-03-05T21:12:40;99318.09;;;-4.28;86.98
55759;BME280;41678;52.126;20.664;2023-03-05T21:18:00;99324.22;;;-4.24;87.45
55759;BME280;41678;52.126;20.664;2023-03-05T21:23:19;99322.31;;;-4.30;87.28
55759;BME280;41678;52.126;20.664;2023-03-05T21:28:39;99321.31;;;-4.34;87.33
55759;BME280;41678;52.126;20.664;2023-03-05T21:33:59;99316.88;;;-4.39;86.97
55759;BME280;41678;52.126;20.664;2023-03-05T21:39:19;99315.16;;;-4.39;87.16
55759;BME280;41678;52.126;20.664;2023-03-05T21:44:38;99311.50;;;-4.47;87.03
55759;BME280;41678;52.126;20.664;2023-03-05T21:49:57;99320.06;;;-4.47;86.97
55759;BME280;41678;52.126;20.664;2023-03-05T21:55:20;99317.28;;;-4.53;87.22
55759;BME280;41678;52.126;20.664;2023-03-05T22:00:42;99315.56;;;-4.54;86.98
55759;BME280;41678;52.126;20.664;2023-03-05T22:06:02;99318.91;;;-4.55;87.02
55759;BME280;41678;52.126;20.664;2023-03-05T22:11:22;99330.19;;;-4.51;87.23
55759;BME280;41678;52.126;20.664;2023-03-05T22:16:42;99312.97;;;-4.54;87.44
55759;BME280;41678;52.126;20.664;2023-03-05T22:22:02;99319.72;;;-4.58;87.05
55759;BME280;41678;52.126;20.664;2023-03-05T22:27:21;99307.78;;;-4.56;87.36
55759;BME280;41678;52.126;20.664;2023-03-05T22:32:41;99312.91;;;-4.56;87.28
55759;BME280;41678;52.126;20.664;2023-03-05T22:38:00;99311.06;;;-4.60;86.85
55759;BME280;41678;52.126;20.664;2023-03-05T22:43:19;99312.81;;;-4.59;87.23
55759;BME280;41678;52.126;20.664;2023-03-05T22:48:39;99317.06;;;-4.59;87.32
55759;BME280;41678;52.126;20.664;2023-03-05T22:53:59;99294.69;;;-4.63;86.91
55759;BME280;41678;52.126;20.664;2023-03-05T22:59:18;99308.53;;;-4.58;87.17
55759;BME280;41678;52.126;20.664;2023-03-05T23:04:49;99296.50;;;-4.59;87.05
55759;BME280;41678;52.126;20.664;2023-03-05T23:10:15;99307.13;;;-4.50;87.07
55759;BME280;41678;52.126;20.664;2023-03-05T23:15:36;99304.44;;;-4.53;87.20
55759;BME280;41678;52.126;20.664;2023-03-05T23:20:57;99302.69;;;-4.54;87.38
55759;BME280;41678;52.126;20.664;2023-03-05T23:26:16;99299.09;;;-4.59;87.34
55759;BME280;41678;52.126;20.664;2023-03-05T23:31:36;99299.06;;;-4.61;87.26
55759;BME280;41678;52.126;20.664;2023-03-05T23:36:58;99303.22;;;-4.64;86.96
55759;BME280;41678;52.126;20.664;2023-03-05T23:42:18;99297.09;;;-4.68;87.24
55759;BME280;41678;52.126;20.664;2023-03-05T23:47:38;99297.09;;;-4.68;87.49
55759;BME280;41678;52.126;20.664;2023-03-05T23:52:58;99297.81;;;-4.72;87.52
55759;BME280;41678;52.126;20.664;2023-03-05T23:58:19;99297.84;;;-4.71;87.72
